sensor_id;sensor_type;location;lat;lon;timestamp;temperature;humidity
30186;DHT22;31152;49.190;8.122;2023-01-10T00:01:35;6.80;99.90
30186;DHT22;31152;49.190;8.122;2023-01-10T00:04:02;6.80;99.90
30186;DHT22;31152;49.190;8.122;2023-01-10T00:06:29;6.80;99.90
30186;DHT22;31152;49.190;8.122;2023-01-10T00:08:56;6.70;99.90
30186;DHT22;31152;49.190;8.122;2023-01-10T00:11:23;6.70;99.90
30186;DHT22;31152;49.190;8.122;2023-01-10T00:14:08;6.70;99.90
30186;DHT22;31152;49.190;8.122;2023-01-10T00:16:36;6.70;99.90
30186;DHT22;31152;49.190;8.122;2023-01-10T00:19:05;6.70;99.90
30186;DHT22;31152;49.190;8.122;2023-01-10T00:21:32;6.60;99.90
30186;DHT22;31152;49.190;8.122;2023-01-10T00:24:01;6.60;99.90
30186;DHT22;31152;49.190;8.122;2023-01-10T00:26:45;6.50;99.90
30186;DHT22;31152;49.190;8.122;2023-01-10T00:29:20;6.50;99.90
30186;DHT22;31152;49.190;8.122;2023-01-10T00:31:50;6.50;99.90
30186;DHT22;31152;49.190;8.122;2023-01-10T00:34:17;6.50;99.90
30186;DHT22;31152;49.190;8.122;2023-01-10T00:36:44;6.50;99.90
30186;DHT22;31152;49.190;8.122;2023-01-10T00:39:13;6.50;99.90
30186;DHT22;31152;49.190;8.122;2023-01-10T00:41:41;6.40;99.90
30186;DHT22;31152;49.190;8.122;2023-01-10T00:44:26;6.40;99.90
30186;DHT22;31152;49.190;8.122;2023-01-10T00:46:53;6.40;99.90
30186;DHT22;31152;49.190;8.122;2023-01-10T00:49:22;6.40;99.90
30186;DHT22;31152;49.190;8.122;2023-01-10T00:51:48;6.40;99.90
30186;DHT22;31152;49.190;8.122;2023-01-10T00:54:17;6.30;99.90
30186;DHT22;31152;49.190;8.122;2023-01-10T00:56:44;6.30;99.90
30186;DHT22;31152;49.190;8.122;2023-01-10T00:59:11;6.40;99.90
30186;DHT22;31152;49.190;8.122;2023-01-10T01:01:38;6.30;99.90
30186;DHT22;31152;49.190;8.122;2023-01-10T01:04:04;6.30;99.90
30186;DHT22;31152;49.190;8.122;2023-01-10T01:06:31;6.30;99.90
30186;DHT22;31152;49.190;8.122;2023-01-10T01:08:58;6.20;99.90
30186;DHT22;31152;49.190;8.122;2023-01-10T01:11:29;6.30;99.90
30186;DHT22;31152;49.190;8.122;2023-01-10T01:13:56;6.20;99.90
30186;DHT22;31152;49.190;8.122;2023-01-10T01:16:22;6.20;99.90
30186;DHT22;31152;49.190;8.122;2023-01-10T01:18:49;6.20;99.90
30186;DHT22;31152;49.190;8.122;2023-01-10T01:21:16;6.20;99.90
30186;DHT22;31152;49.190;8.122;2023-01-10T01:23:43;6.20;99.90
30186;DHT22;31152;49.190;8.122;2023-01-10T01:26:12;6.20;99.90
30186;DHT22;31152;49.190;8.122;2023-01-10T01:28:39;6.10;99.90
30186;DHT22;31152;49.190;8.122;2023-01-10T01:31:07;6.10;99.90
30186;DHT22;31152;49.190;8.122;2023-01-10T01:33:36;6.10;99.90
30186;DHT22;31152;49.190;8.122;2023-01-10T01:36:10;6.10;99.90
30186;DHT22;31152;49.190;8.122;2023-01-10T01:38:39;6.10;99.90
30186;DHT22;31152;49.190;8.122;2023-01-10T01:41:06;6.00;99.90
30186;DHT22;31152;49.190;8.122;2023-01-10T01:44:04;6.00;99.90
30186;DHT22;31152;49.190;8.122;2023-01-10T01:46:34;6.10;99.90
30186;DHT22;31152;49.190;8.122;2023-01-10T01:49:05;6.10;99.90
30186;DHT22;31152;49.190;8.122;2023-01-10T01:51:36;6.10;99.90
30186;DHT22;31152;49.190;8.122;2023-01-10T01:54:11;6.20;99.90
30186;DHT22;31152;49.190;8.122;2023-01-10T01:56:43;6.10;99.90
30186;DHT22;31152;49.190;8.122;2023-01-10T01:59:18;6.10;99.90
30186;DHT22;31152;49.190;8.122;2023-01-10T02:01:51;6.10;99.90
30186;DHT22;31152;49.190;8.122;2023-01-10T02:04:26;6.20;99.90
30186;DHT22;31152;49.190;8.122;2023-01-10T02:06:56;6.20;99.90
30186;DHT22;31152;49.190;8.122;2023-01-10T02:09:49;6.30;99.90
30186;DHT22;31152;49.190;8.122;2023-01-10T02:12:18;6.30;99.90
30186;DHT22;31152;49.190;8.122;2023-01-10T02:14:48;6.30;99.90
30186;DHT22;31152;49.190;8.122;2023-01-10T02:17:15;6.30;99.90
30186;DHT22;31152;49.190;8.122;2023-01-10T02:42:43;6.20;99.90
30186;DHT22;31152;49.190;8.122;2023-01-10T02:45:53;6.20;99.90
30186;DHT22;31152;49.190;8.122;2023-01-10T02:48:20;6.20;99.90
30186;DHT22;31152;49.190;8.122;2023-01-10T02:53:42;6.20;99.90
30186;DHT22;31152;49.190;8.122;2023-01-10T03:14:49;6.10;99.90
30186;DHT22;31152;49.190;8.122;2023-01-10T03:17:20;6.10;99.90
30186;DHT22;31152;49.190;8.122;2023-01-10T03:19:53;6.00;99.90
30186;DHT22;31152;49.190;8.122;2023-01-10T03:22:23;6.10;99.90
30186;DHT22;31152;49.190;8.122;2023-01-10T03:24:53;6.10;99.90
30186;DHT22;31152;49.190;8.122;2023-01-10T03:30:16;6.10;99.90
30186;DHT22;31152;49.190;8.122;2023-01-10T03:32:43;6.20;99.90
30186;DHT22;31152;49.190;8.122;2023-01-10T03:35:11;6.20;99.90
30186;DHT22;31152;49.190;8.122;2023-01-10T03:37:57;6.30;99.90
30186;DHT22;31152;49.190;8.122;2023-01-10T03:43:46;6.30;99.90
30186;DHT22;31152;49.190;8.122;2023-01-10T03:49:14;6.30;99.90
30186;DHT22;31152;49.190;8.122;2023-01-10T03:51:42;6.40;99.90
30186;DHT22;31152;49.190;8.122;2023-01-10T03:54:09;6.40;99.90
30186;DHT22;31152;49.190;8.122;2023-01-10T03:56:46;6.30;99.90
30186;DHT22;31152;49.190;8.122;2023-01-10T03:59:16;6.30;99.90
30186;DHT22;31152;49.190;8.122;2023-01-10T04:01:44;6.30;99.90
30186;DHT22;31152;49.190;8.122;2023-01-10T04:04:11;6.40;99.90
30186;DHT22;31152;49.190;8.122;2023-01-10T04:06:38;6.30;99.90
30186;DHT22;31152;49.190;8.122;2023-01-10T04:09:04;6.40;99.90
30186;DHT22;31152;49.190;8.122;2023-01-10T04:11:34;6.30;99.90
30186;DHT22;31152;49.190;8.122;2023-01-10T04:14:00;6.30;99.90
30186;DHT22;31152;49.190;8.122;2023-01-10T04:16:30;6.30;99.90
30186;DHT22;31152;49.190;8.122;2023-01-10T04:18:56;6.30;99.90
30186;DHT22;31152;49.190;8.122;2023-01-10T04:21:25;6.30;99.90
30186;DHT22;31152;49.190;8.122;2023-01-10T04:23:52;6.30;99.90
30186;DHT22;31152;49.190;8.122;2023-01-10T04:26:21;6.30;99.90
30186;DHT22;31152;49.190;8.122;2023-01-10T04:28:47;6.30;99.90
30186;DHT22;31152;49.190;8.122;2023-01-10T04:31:14;6.30;99.90
30186;DHT22;31152;49.190;8.122;2023-01-10T04:33:41;6.30;99.90
30186;DHT22;31152;49.190;8.122;2023-01-10T04:36:07;6.20;99.90
30186;DHT22;31152;49.190;8.122;2023-01-10T04:38:34;6.20;99.90
30186;DHT22;31152;49.190;8.122;2023-01-10T04:41:01;6.20;99.90
30186;DHT22;31152;49.190;8.122;2023-01-10T04:43:28;6.20;99.90
30186;DHT22;31152;49.190;8.122;2023-01-10T04:45:54;6.20;99.90
30186;DHT22;31152;49.190;8.122;2023-01-10T04:48:21;6.20;99.90
30186;DHT22;31152;49.190;8.122;2023-01-10T04:50:49;6.20;99.90
30186;DHT22;31152;49.190;8.122;2023-01-10T04:53:16;6.20;99.90
30186;DHT22;31152;49.190;8.122;2023-01-10T04:55:46;6.20;99.90
30186;DHT22;31152;49.190;8.122;2023-01-10T04:58:13;6.20;99.90
30186;DHT22;31152;49.190;8.122;2023-01-10T05:00:40;6.20;99.90
30186;DHT22;31152;49.190;8.122;2023-01-10T05:03:07;6.20;99.90
30186;DHT22;31152;49.190;8.122;2023-01-10T05:05:34;6.20;99.90
30186;DHT22;31152;49.190;8.122;2023-01-10T05:08:01;6.20;99.90
30186;DHT22;31152;49.190;8.122;2023-01-10T05:10:27;6.20;99.90
30186;DHT22;31152;49.190;8.122;2023-01-10T05:12:54;6.20;99.90
30186;DHT22;31152;49.190;8.122;2023-01-10T05:15:21;6.20;99.90
30186;DHT22;31152;49.190;8.122;2023-01-10T05:17:55;6.20;99.90
30186;DHT22;31152;49.190;8.122;2023-01-10T05:20:22;6.20;99.90
30186;DHT22;31152;49.190;8.122;2023-01-10T05:22:49;6.10;99.90
30186;DHT22;31152;49.190;8.122;2023-01-10T05:25:18;6.10;99.90
30186;DHT22;31152;49.190;8.122;2023-01-10T05:27:45;6.10;99.90
30186;DHT22;31152;49.190;8.122;2023-01-10T05:30:12;6.10;99.90
30186;DHT22;31152;49.190;8.122;2023-01-10T05:32:39;6.10;99.90
30186;DHT22;31152;49.190;8.122;2023-01-10T05:35:06;6.00;99.90
30186;DHT22;31152;49.190;8.122;2023-01-10T05:37:33;6.00;99.90
30186;DHT22;31152;49.190;8.122;2023-01-10T05:40:04;6.00;99.90
30186;DHT22;31152;49.190;8.122;2023-01-10T05:42:31;6.00;99.90
30186;DHT22;31152;49.190;8.122;2023-01-10T05:45:00;5.90;99.90
30186;DHT22;31152;49.190;8.122;2023-01-10T05:47:26;5.90;99.90
30186;DHT22;31152;49.190;8.122;2023-01-10T05:49:53;5.90;99.90
30186;DHT22;31152;49.190;8.122;2023-01-10T05:52:22;5.80;99.90
30186;DHT22;31152;49.190;8.122;2023-01-10T05:54:49;5.80;99.90
30186;DHT22;31152;49.190;8.122;2023-01-10T05:57:16;5.80;99.90
30186;DHT22;31152;49.190;8.122;2023-01-10T05:59:45;5.80;99.90
30186;DHT22;31152;49.190;8.122;2023-01-10T06:02:11;5.80;99.90
30186;DHT22;31152;49.190;8.122;2023-01-10T06:04:38;5.80;99.90
30186;DHT22;31152;49.190;8.122;2023-01-10T06:07:05;5.90;99.90
30186;DHT22;31152;49.190;8.122;2023-01-10T06:09:34;5.80;99.90
30186;DHT22;31152;49.190;8.122;2023-01-10T06:12:01;5.80;99.90
30186;DHT22;31152;49.190;8.122;2023-01-10T06:14:28;5.90;99.90
30186;DHT22;31152;49.190;8.122;2023-01-10T06:16:57;5.90;99.90
30186;DHT22;31152;49.190;8.122;2023-01-10T06:19:23;5.90;99.90
30186;DHT22;31152;49.190;8.122;2023-01-10T06:21:50;5.90;99.90
30186;DHT22;31152;49.190;8.122;2023-01-10T06:24:19;5.90;99.90
30186;DHT22;31152;49.190;8.122;2023-01-10T06:26:46;5.90;99.90
30186;DHT22;31152;49.190;8.122;2023-01-10T06:29:12;5.90;99.90
30186;DHT22;31152;49.190;8.122;2023-01-10T06:31:39;5.80;99.90
30186;DHT22;31152;49.190;8.122;2023-01-10T06:34:06;5.80;99.90
30186;DHT22;31152;49.190;8.122;2023-01-10T06:36:35;5.70;99.90
30186;DHT22;31152;49.190;8.122;2023-01-10T06:39:01;5.70;99.90
30186;DHT22;31152;49.190;8.122;2023-01-10T06:41:28;5.70;99.90
30186;DHT22;31152;49.190;8.122;2023-01-10T06:43:55;5.70;99.90
30186;DHT22;31152;49.190;8.122;2023-01-10T06:46:22;5.70;99.90
30186;DHT22;31152;49.190;8.122;2023-01-10T06:48:51;5.70;99.90
30186;DHT22;31152;49.190;8.122;2023-01-10T06:51:18;5.70;99.90
30186;DHT22;31152;49.190;8.122;2023-01-10T06:53:46;5.70;99.90
30186;DHT22;31152;49.190;8.122;2023-01-10T06:56:12;5.70;99.90
30186;DHT22;31152;49.190;8.122;2023-01-10T06:58:39;5.70;99.90
30186;DHT22;31152;49.190;8.122;2023-01-10T07:01:14;5.60;99.90
30186;DHT22;31152;49.190;8.122;2023-01-10T07:03:41;5.60;99.90
30186;DHT22;31152;49.190;8.122;2023-01-10T07:06:08;5.60;99.90
30186;DHT22;31152;49.190;8.122;2023-01-10T07:08:39;5.60;99.90
30186;DHT22;31152;49.190;8.122;2023-01-10T07:11:07;5.60;99.90
30186;DHT22;31152;49.190;8.122;2023-01-10T07:13:35;5.50;99.90
30186;DHT22;31152;49.190;8.122;2023-01-10T07:16:07;5.50;99.90
30186;DHT22;31152;49.190;8.122;2023-01-10T07:18:35;5.50;99.90
30186;DHT22;31152;49.190;8.122;2023-01-10T07:21:05;5.60;99.90
30186;DHT22;31152;49.190;8.122;2023-01-10T07:23:32;5.60;99.90
30186;DHT22;31152;49.190;8.122;2023-01-10T07:26:04;5.60;99.90
30186;DHT22;31152;49.190;8.122;2023-01-10T07:28:32;5.70;99.90
30186;DHT22;31152;49.190;8.122;2023-01-10T07:31:01;5.70;99.90
30186;DHT22;31152;49.190;8.122;2023-01-10T07:33:29;5.80;99.90
30186;DHT22;31152;49.190;8.122;2023-01-10T07:35:59;5.80;99.90
30186;DHT22;31152;49.190;8.122;2023-01-10T07:38:27;5.80;99.90
30186;DHT22;31152;49.190;8.122;2023-01-10T07:40:54;5.80;99.90
30186;DHT22;31152;49.190;8.122;2023-01-10T07:43:21;5.80;99.90
30186;DHT22;31152;49.190;8.122;2023-01-10T07:45:49;5.80;99.90
30186;DHT22;31152;49.190;8.122;2023-01-10T07:48:18;5.80;99.90
30186;DHT22;31152;49.190;8.122;2023-01-10T07:50:45;5.90;99.90
30186;DHT22;31152;49.190;8.122;2023-01-10T07:53:12;5.90;99.90
30186;DHT22;31152;49.190;8.122;2023-01-10T07:55:39;5.90;99.90
30186;DHT22;31152;49.190;8.122;2023-01-10T07:58:06;5.90;99.90
30186;DHT22;31152;49.190;8.122;2023-01-10T08:00:34;5.90;99.90
30186;DHT22;31152;49.190;8.122;2023-01-10T08:03:03;5.90;99.90
30186;DHT22;31152;49.190;8.122;2023-01-10T08:05:32;5.90;99.90
30186;DHT22;31152;49.190;8.122;2023-01-10T08:08:06;5.90;99.90
30186;DHT22;31152;49.190;8.122;2023-01-10T08:10:34;5.90;99.90
30186;DHT22;31152;49.190;8.122;2023-01-10T08:13:01;5.90;99.90
30186;DHT22;31152;49.190;8.122;2023-01-10T08:15:42;5.90;99.90
30186;DHT22;31152;49.190;8.122;2023-01-10T08:18:13;5.90;99.90
30186;DHT22;31152;49.190;8.122;2023-01-10T08:20:42;5.90;99.90
30186;DHT22;31152;49.190;8.122;2023-01-10T08:23:09;5.90;99.90
30186;DHT22;31152;49.190;8.122;2023-01-10T08:25:36;5.90;99.90
30186;DHT22;31152;49.190;8.122;2023-01-10T08:28:05;5.80;99.90
30186;DHT22;31152;49.190;8.122;2023-01-10T08:30:35;5.80;99.90
30186;DHT22;31152;49.190;8.122;2023-01-10T08:33:03;5.80;99.90
30186;DHT22;31152;49.190;8.122;2023-01-10T08:35:41;5.80;99.90
30186;DHT22;31152;49.190;8.122;2023-01-10T08:38:10;5.80;99.90
30186;DHT22;31152;49.190;8.122;2023-01-10T08:40:40;5.80;99.90
30186;DHT22;31152;49.190;8.122;2023-01-10T08:43:10;5.80;99.90
30186;DHT22;31152;49.190;8.122;2023-01-10T08:45:38;5.80;99.90
30186;DHT22;31152;49.190;8.122;2023-01-10T08:48:05;5.80;99.90
30186;DHT22;31152;49.190;8.122;2023-01-10T08:50:36;5.80;99.90
30186;DHT22;31152;49.190;8.122;2023-01-10T08:53:06;5.80;99.90
30186;DHT22;31152;49.190;8.122;2023-01-10T08:55:33;5.90;99.90
30186;DHT22;31152;49.190;8.122;2023-01-10T08:58:02;5.80;99.90
30186;DHT22;31152;49.190;8.122;2023-01-10T09:00:36;5.90;99.90
30186;DHT22;31152;49.190;8.122;2023-01-10T09:03:05;5.90;99.90
30186;DHT22;31152;49.190;8.122;2023-01-10T09:05:34;5.90;99.90
30186;DHT22;31152;49.190;8.122;2023-01-10T09:08:02;5.90;99.90
30186;DHT22;31152;49.190;8.122;2023-01-10T09:10:28;5.90;99.90
30186;DHT22;31152;49.190;8.122;2023-01-10T09:12:57;5.90;99.90
30186;DHT22;31152;49.190;8.122;2023-01-10T09:15:29;6.10;99.90
30186;DHT22;31152;49.190;8.122;2023-01-10T09:18:01;6.10;99.90
30186;DHT22;31152;49.190;8.122;2023-01-10T09:20:28;6.10;99.90
30186;DHT22;31152;49.190;8.122;2023-01-10T09:22:56;6.10;99.90
30186;DHT22;31152;49.190;8.122;2023-01-10T09:25:23;6.10;99.90
30186;DHT22;31152;49.190;8.122;2023-01-10T09:27:58;6.20;99.90
30186;DHT22;31152;49.190;8.122;2023-01-10T09:30:26;6.20;99.90
30186;DHT22;31152;49.190;8.122;2023-01-10T09:32:54;6.20;99.90
30186;DHT22;31152;49.190;8.122;2023-01-10T09:35:22;6.20;99.90
30186;DHT22;31152;49.190;8.122;2023-01-10T09:37:56;6.20;99.90
30186;DHT22;31152;49.190;8.122;2023-01-10T09:49:13;6.30;99.90
30186;DHT22;31152;49.190;8.122;2023-01-10T09:51:43;6.40;99.90
30186;DHT22;31152;49.190;8.122;2023-01-10T09:56:43;6.40;99.90
30186;DHT22;31152;49.190;8.122;2023-01-10T09:59:14;6.50;99.90
30186;DHT22;31152;49.190;8.122;2023-01-10T10:01:44;6.50;99.90
30186;DHT22;31152;49.190;8.122;2023-01-10T10:06:50;6.70;99.90
30186;DHT22;31152;49.190;8.122;2023-01-10T10:09:29;6.70;99.90
30186;DHT22;31152;49.190;8.122;2023-01-10T10:12:08;6.70;99.90
30186;DHT22;31152;49.190;8.122;2023-01-10T10:25:52;6.80;99.90
30186;DHT22;31152;49.190;8.122;2023-01-10T10:28:41;6.70;99.90
30186;DHT22;31152;49.190;8.122;2023-01-10T10:34:16;6.70;99.90
30186;DHT22;31152;49.190;8.122;2023-01-10T10:36:56;6.70;99.90
30186;DHT22;31152;49.190;8.122;2023-01-10T10:39:35;6.60;99.90
30186;DHT22;31152;49.190;8.122;2023-01-10T10:42:03;6.60;99.90
30186;DHT22;31152;49.190;8.122;2023-01-10T10:47:16;6.60;99.90
30186;DHT22;31152;49.190;8.122;2023-01-10T10:52:27;6.60;99.90
30186;DHT22;31152;49.190;8.122;2023-01-10T10:54:57;6.60;99.90
30186;DHT22;31152;49.190;8.122;2023-01-10T10:57:27;6.60;99.90
30186;DHT22;31152;49.190;8.122;2023-01-10T10:59:55;6.60;99.90
30186;DHT22;31152;49.190;8.122;2023-01-10T11:02:26;6.70;99.90
30186;DHT22;31152;49.190;8.122;2023-01-10T11:04:59;6.70;99.90
30186;DHT22;31152;49.190;8.122;2023-01-10T11:07:31;6.80;99.90
30186;DHT22;31152;49.190;8.122;2023-01-10T11:10:03;6.90;99.90
30186;DHT22;31152;49.190;8.122;2023-01-10T11:12:49;6.90;99.90
30186;DHT22;31152;49.190;8.122;2023-01-10T11:15:42;6.80;99.90
30186;DHT22;31152;49.190;8.122;2023-01-10T11:18:18;6.90;99.90
30186;DHT22;31152;49.190;8.122;2023-01-10T11:20:51;6.90;99.90
30186;DHT22;31152;49.190;8.122;2023-01-10T11:23:51;6.80;99.90
30186;DHT22;31152;49.190;8.122;2023-01-10T11:26:36;6.80;99.90
30186;DHT22;31152;49.190;8.122;2023-01-10T11:29:23;6.90;99.90
30186;DHT22;31152;49.190;8.122;2023-01-10T11:31:52;6.90;99.90
30186;DHT22;31152;49.190;8.122;2023-01-10T11:37:25;6.90;99.90
30186;DHT22;31152;49.190;8.122;2023-01-10T11:40:17;6.90;99.90
30186;DHT22;31152;49.190;8.122;2023-01-10T11:42:49;6.80;99.90
30186;DHT22;31152;49.190;8.122;2023-01-10T11:45:20;6.90;99.90
30186;DHT22;31152;49.190;8.122;2023-01-10T11:48:20;7.00;99.90
30186;DHT22;31152;49.190;8.122;2023-01-10T11:51:16;7.00;99.90
30186;DHT22;31152;49.190;8.122;2023-01-10T11:53:44;7.10;99.90
30186;DHT22;31152;49.190;8.122;2023-01-10T11:56:27;7.10;99.90
30186;DHT22;31152;49.190;8.122;2023-01-10T11:58:56;7.10;99.90
30186;DHT22;31152;49.190;8.122;2023-01-10T12:01:40;7.10;99.90
30186;DHT22;31152;49.190;8.122;2023-01-10T12:04:13;7.20;99.90
30186;DHT22;31152;49.190;8.122;2023-01-10T12:06:52;7.30;99.90
30186;DHT22;31152;49.190;8.122;2023-01-10T12:09:41;7.50;99.90
30186;DHT22;31152;49.190;8.122;2023-01-10T12:12:24;7.60;99.90
30186;DHT22;31152;49.190;8.122;2023-01-10T12:14:53;7.90;99.90
30186;DHT22;31152;49.190;8.122;2023-01-10T12:17:25;8.20;99.90
30186;DHT22;31152;49.190;8.122;2023-01-10T12:19:59;8.60;99.90
30186;DHT22;31152;49.190;8.122;2023-01-10T12:22:34;9.60;99.90
30186;DHT22;31152;49.190;8.122;2023-01-10T12:25:09;10.70;99.90
30186;DHT22;31152;49.190;8.122;2023-01-10T12:27:43;11.40;99.90
30186;DHT22;31152;49.190;8.122;2023-01-10T12:30:32;11.20;99.90
30186;DHT22;31152;49.190;8.122;2023-01-10T12:33:05;10.40;99.90
30186;DHT22;31152;49.190;8.122;2023-01-10T12:38:35;9.00;99.90
30186;DHT22;31152;49.190;8.122;2023-01-10T12:41:37;8.70;99.90
30186;DHT22;31152;49.190;8.122;2023-01-10T12:44:42;8.30;99.90
30186;DHT22;31152;49.190;8.122;2023-01-10T12:52:53;7.70;99.90
30186;DHT22;31152;49.190;8.122;2023-01-10T12:55:28;7.80;99.90
30186;DHT22;31152;49.190;8.122;2023-01-10T12:58:01;7.80;99.90
30186;DHT22;31152;49.190;8.122;2023-01-10T13:00:35;8.00;99.90
30186;DHT22;31152;49.190;8.122;2023-01-10T13:03:18;8.10;99.90
30186;DHT22;31152;49.190;8.122;2023-01-10T13:05:47;8.20;99.90
30186;DHT22;31152;49.190;8.122;2023-01-10T13:08:17;8.40;99.90
30186;DHT22;31152;49.190;8.122;2023-01-10T13:10:49;8.40;99.90
30186;DHT22;31152;49.190;8.122;2023-01-10T13:21:29;8.20;99.90
30186;DHT22;31152;49.190;8.122;2023-01-10T13:26:50;8.50;99.90
30186;DHT22;31152;49.190;8.122;2023-01-10T13:29:44;8.70;99.90
30186;DHT22;31152;49.190;8.122;2023-01-10T13:32:22;8.60;99.90
30186;DHT22;31152;49.190;8.122;2023-01-10T13:34:50;8.50;99.90
30186;DHT22;31152;49.190;8.122;2023-01-10T13:37:36;8.50;99.90
30186;DHT22;31152;49.190;8.122;2023-01-10T13:40:04;8.60;99.90
30186;DHT22;31152;49.190;8.122;2023-01-10T13:42:35;8.60;99.90
30186;DHT22;31152;49.190;8.122;2023-01-10T13:45:26;8.60;99.90
30186;DHT22;31152;49.190;8.122;2023-01-10T14:00:48;8.40;99.90
30186;DHT22;31152;49.190;8.122;2023-01-10T14:03:56;8.40;99.90
30186;DHT22;31152;49.190;8.122;2023-01-10T14:14:21;7.90;99.90
30186;DHT22;31152;49.190;8.122;2023-01-10T14:16:52;7.80;99.90
30186;DHT22;31152;49.190;8.122;2023-01-10T14:19:30;7.80;99.90
30186;DHT22;31152;49.190;8.122;2023-01-10T14:22:00;7.70;99.90
30186;DHT22;31152;49.190;8.122;2023-01-10T14:24:39;7.70;99.90
30186;DHT22;31152;49.190;8.122;2023-01-10T14:27:13;7.70;99.90
30186;DHT22;31152;49.190;8.122;2023-01-10T14:29:47;7.70;99.90
30186;DHT22;31152;49.190;8.122;2023-01-10T14:32:39;7.70;99.90
30186;DHT22;31152;49.190;8.122;2023-01-10T14:35:08;7.70;99.90
30186;DHT22;31152;49.190;8.122;2023-01-10T14:37:45;7.60;99.90
30186;DHT22;31152;49.190;8.122;2023-01-10T14:40:24;7.70;99.90
30186;DHT22;31152;49.190;8.122;2023-01-10T14:42:53;7.80;99.90
30186;DHT22;31152;49.190;8.122;2023-01-10T14:45:50;7.90;99.90
30186;DHT22;31152;49.190;8.122;2023-01-10T14:53:41;8.10;99.90
30186;DHT22;31152;49.190;8.122;2023-01-10T14:56:22;8.00;99.90
30186;DHT22;31152;49.190;8.122;2023-01-10T14:58:49;8.10;99.90
30186;DHT22;31152;49.190;8.122;2023-01-10T15:01:22;8.00;99.90
30186;DHT22;31152;49.190;8.122;2023-01-10T15:03:53;8.00;99.90
30186;DHT22;31152;49.190;8.122;2023-01-10T15:06:23;8.00;99.90
30186;DHT22;31152;49.190;8.122;2023-01-10T15:08:56;8.00;99.90
30186;DHT22;31152;49.190;8.122;2023-01-10T15:11:24;7.90;99.90
30186;DHT22;31152;49.190;8.122;2023-01-10T15:14:00;7.90;99.90
30186;DHT22;31152;49.190;8.122;2023-01-10T15:16:29;7.80;99.90
30186;DHT22;31152;49.190;8.122;2023-01-10T15:18:56;7.70;99.90
30186;DHT22;31152;49.190;8.122;2023-01-10T15:21:24;7.60;99.90
30186;DHT22;31152;49.190;8.122;2023-01-10T15:23:52;7.60;99.90
30186;DHT22;31152;49.190;8.122;2023-01-10T15:26:20;7.50;99.90
30186;DHT22;31152;49.190;8.122;2023-01-10T15:29:05;7.40;99.90
30186;DHT22;31152;49.190;8.122;2023-01-10T15:31:36;7.40;99.90
30186;DHT22;31152;49.190;8.122;2023-01-10T15:34:19;7.30;99.90
30186;DHT22;31152;49.190;8.122;2023-01-10T15:36:52;7.30;99.90
30186;DHT22;31152;49.190;8.122;2023-01-10T15:39:26;7.20;99.90
30186;DHT22;31152;49.190;8.122;2023-01-10T15:42:05;7.20;99.90
30186;DHT22;31152;49.190;8.122;2023-01-10T15:44:44;7.10;99.90
30186;DHT22;31152;49.190;8.122;2023-01-10T15:47:50;7.10;99.90
30186;DHT22;31152;49.190;8.122;2023-01-10T15:52:59;7.00;99.90
30186;DHT22;31152;49.190;8.122;2023-01-10T15:58:34;6.90;99.90
30186;DHT22;31152;49.190;8.122;2023-01-10T16:01:02;6.90;99.90
30186;DHT22;31152;49.190;8.122;2023-01-10T16:03:44;6.80;99.90
30186;DHT22;31152;49.190;8.122;2023-01-10T16:06:23;6.80;99.90
30186;DHT22;31152;49.190;8.122;2023-01-10T16:08:56;6.80;99.90
30186;DHT22;31152;49.190;8.122;2023-01-10T16:11:46;6.80;99.90
30186;DHT22;31152;49.190;8.122;2023-01-10T16:14:29;6.80;99.90
30186;DHT22;31152;49.190;8.122;2023-01-10T16:16:56;6.70;99.90
30186;DHT22;31152;49.190;8.122;2023-01-10T16:19:25;6.70;99.90
30186;DHT22;31152;49.190;8.122;2023-01-10T16:21:54;6.70;99.90
30186;DHT22;31152;49.190;8.122;2023-01-10T16:24:29;6.70;99.90
30186;DHT22;31152;49.190;8.122;2023-01-10T16:26:57;6.60;99.90
30186;DHT22;31152;49.190;8.122;2023-01-10T16:29:28;6.60;99.90
30186;DHT22;31152;49.190;8.122;2023-01-10T16:31:57;6.60;99.90
30186;DHT22;31152;49.190;8.122;2023-01-10T16:34:24;6.60;99.90
30186;DHT22;31152;49.190;8.122;2023-01-10T16:36:51;6.60;99.90
30186;DHT22;31152;49.190;8.122;2023-01-10T16:39:22;6.60;99.90
30186;DHT22;31152;49.190;8.122;2023-01-10T16:41:49;6.60;99.90
30186;DHT22;31152;49.190;8.122;2023-01-10T16:44:35;6.60;99.90
30186;DHT22;31152;49.190;8.122;2023-01-10T16:47:02;6.60;99.90
30186;DHT22;31152;49.190;8.122;2023-01-10T16:49:32;6.60;99.90
30186;DHT22;31152;49.190;8.122;2023-01-10T16:52:01;6.60;99.90
30186;DHT22;31152;49.190;8.122;2023-01-10T16:54:29;6.60;99.90
30186;DHT22;31152;49.190;8.122;2023-01-10T16:57:01;6.60;99.90
30186;DHT22;31152;49.190;8.122;2023-01-10T16:59:28;6.60;99.90
30186;DHT22;31152;49.190;8.122;2023-01-10T17:01:57;6.60;99.90
30186;DHT22;31152;49.190;8.122;2023-01-10T17:04:26;6.60;99.90
30186;DHT22;31152;49.190;8.122;2023-01-10T17:06:55;6.60;99.90
30186;DHT22;31152;49.190;8.122;2023-01-10T17:09:26;6.60;99.90
30186;DHT22;31152;49.190;8.122;2023-01-10T17:11:55;6.70;99.90
30186;DHT22;31152;49.190;8.122;2023-01-10T17:14:32;6.60;99.90
30186;DHT22;31152;49.190;8.122;2023-01-10T17:17:00;6.60;99.90
30186;DHT22;31152;49.190;8.122;2023-01-10T17:19:28;6.60;99.90
30186;DHT22;31152;49.190;8.122;2023-01-10T17:21:55;6.60;99.90
30186;DHT22;31152;49.190;8.122;2023-01-10T17:24:22;6.60;99.90
30186;DHT22;31152;49.190;8.122;2023-01-10T17:26:49;6.60;99.90
30186;DHT22;31152;49.190;8.122;2023-01-10T17:29:16;6.50;99.90
30186;DHT22;31152;49.190;8.122;2023-01-10T17:31:43;6.50;99.90
30186;DHT22;31152;49.190;8.122;2023-01-10T17:34:10;6.50;99.90
30186;DHT22;31152;49.190;8.122;2023-01-10T17:36:37;6.50;99.90
30186;DHT22;31152;49.190;8.122;2023-01-10T17:39:05;6.50;99.90
30186;DHT22;31152;49.190;8.122;2023-01-10T17:41:32;6.50;99.90
30186;DHT22;31152;49.190;8.122;2023-01-10T17:43:59;6.60;99.90
30186;DHT22;31152;49.190;8.122;2023-01-10T17:46:26;6.50;99.90
30186;DHT22;31152;49.190;8.122;2023-01-10T17:48:52;6.50;99.90
30186;DHT22;31152;49.190;8.122;2023-01-10T17:51:21;6.50;99.90
30186;DHT22;31152;49.190;8.122;2023-01-10T17:53:53;6.50;99.90
30186;DHT22;31152;49.190;8.122;2023-01-10T17:56:22;6.50;99.90
30186;DHT22;31152;49.190;8.122;2023-01-10T17:58:51;6.50;99.90
30186;DHT22;31152;49.190;8.122;2023-01-10T18:01:21;6.50;99.90
30186;DHT22;31152;49.190;8.122;2023-01-10T18:03:53;6.50;99.90
30186;DHT22;31152;49.190;8.122;2023-01-10T18:06:24;6.40;99.90
30186;DHT22;31152;49.190;8.122;2023-01-10T18:09:15;6.40;99.90
30186;DHT22;31152;49.190;8.122;2023-01-10T18:11:42;6.40;99.90
30186;DHT22;31152;49.190;8.122;2023-01-10T18:14:11;6.40;99.90
30186;DHT22;31152;49.190;8.122;2023-01-10T18:16:59;6.40;99.90
30186;DHT22;31152;49.190;8.122;2023-01-10T18:19:28;6.40;99.90
30186;DHT22;31152;49.190;8.122;2023-01-10T18:21:57;6.40;99.90
30186;DHT22;31152;49.190;8.122;2023-01-10T18:24:26;6.40;99.90
30186;DHT22;31152;49.190;8.122;2023-01-10T18:26:53;6.40;99.90
30186;DHT22;31152;49.190;8.122;2023-01-10T18:29:20;6.40;99.90
30186;DHT22;31152;49.190;8.122;2023-01-10T18:31:46;6.40;99.90
30186;DHT22;31152;49.190;8.122;2023-01-10T18:34:13;6.40;99.90